Time;durP1;ratioP1;P1;durP2;ratioP2;P2;SDS_P1;SDS_P2;PMS_P1;PMS_P2;Temp;Humidity;BMP_temperature;BMP_pressure;BME280_temperature;BME280_humidity;BME280_pressure;Samples;Min_cycle;Max_cycle;Signal;HPM_P1;HPM_P2
2021/05/26 00:00:15;;;;;;;;;;;20.00;34.50;;;;;;491586;240;1481;-74
2021/05/26 00:02:17;;;;;;;;;;;19.90;34.40;;;;;;491536;240;1146;-73
2021/05/26 00:04:18;;;;;;;;;;;20.00;34.50;;;;;;491564;240;1196;-73
2021/05/26 00:06:20;;;;;;;;;;;20.00;34.40;;;;;;491460;240;1242;-73
2021/05/26 00:08:21;;;;;;;;;;;20.10;34.50;;;;;;491559;240;1075;-73
2021/05/26 00:10:22;;;;;;;;;;;20.00;34.40;;;;;;491530;240;951;-73
2021/05/26 00:12:23;;;;;;;;;;;20.00;34.40;;;;;;491472;240;1190;-74
2021/05/26 00:14:25;;;;;;;;;;;20.00;34.40;;;;;;491607;240;993;-74
2021/05/26 00:16:26;;;;;;;;;;;20.00;34.40;;;;;;491317;240;2213;-74
2021/05/26 00:18:27;;;;;;;;;;;20.00;34.40;;;;;;491519;240;1160;-74
2021/05/26 00:20:29;;;;;;;;;;;20.00;34.40;;;;;;491535;240;1184;-73
2021/05/26 00:22:30;;;;;;;;;;;20.00;34.50;;;;;;491416;240;1157;-73
2021/05/26 00:24:31;;;;;;;;;;;20.00;34.50;;;;;;491492;240;975;-73
2021/05/26 00:26:32;;;;;;;;;;;19.90;34.50;;;;;;491484;240;1204;-73
2021/05/26 00:28:34;;;;;;;;;;;20.00;34.60;;;;;;491579;240;1040;-73
2021/05/26 00:30:43;;;;;;;;;;;20.00;34.60;;;;;;491505;240;950;-74
2021/05/26 00:32:37;;;;;;;;;;;20.10;34.70;;;;;;491570;240;1421;-74
2021/05/26 00:34:38;;;;;;;;;;;20.10;34.70;;;;;;491586;240;1183;-74
2021/05/26 00:36:39;;;;;;;;;;;20.10;34.70;;;;;;491419;240;2136;-73
2021/05/26 00:38:40;;;;;;;;;;;20.10;34.80;;;;;;491560;240;923;-74
2021/05/26 00:40:42;;;;;;;;;;;20.10;34.80;;;;;;491484;240;1223;-73
2021/05/26 00:42:43;;;;;;;;;;;20.00;34.80;;;;;;491479;240;1003;-73
2021/05/26 00:44:44;;;;;;;;;;;20.00;34.90;;;;;;491398;240;971;-73
2021/05/26 00:46:45;;;;;;;;;;;20.00;35.00;;;;;;491373;240;1069;-74
2021/05/26 00:48:47;;;;;;;;;;;20.00;35.00;;;;;;491459;240;1213;-74
2021/05/26 00:50:48;;;;;;;;;;;20.00;35.10;;;;;;491433;240;1195;-74
2021/05/26 00:52:49;;;;;;;;;;;20.00;35.20;;;;;;491520;240;1008;-74
2021/05/26 00:54:51;;;;;;;;;;;20.00;35.20;;;;;;491570;240;986;-74
2021/05/26 00:56:52;;;;;;;;;;;19.90;35.20;;;;;;491540;240;2168;-74
2021/05/26 00:58:53;;;;;;;;;;;20.00;35.30;;;;;;491661;240;960;-74
2021/05/26 01:00:56;;;;;;;;;;;20.00;35.30;;;;;;491498;240;1097;-74
2021/05/26 01:02:56;;;;;;;;;;;20.00;35.30;;;;;;491543;240;1988;-74
2021/05/26 01:04:57;;;;;;;;;;;20.00;35.30;;;;;;491675;240;1276;-74
2021/05/26 01:06:59;;;;;;;;;;;20.00;35.40;;;;;;491500;240;1103;-74
2021/05/26 01:09:00;;;;;;;;;;;20.00;35.30;;;;;;491410;240;1118;-74
2021/05/26 01:11:02;;;;;;;;;;;20.00;35.40;;;;;;491369;240;1076;-74
2021/05/26 01:13:03;;;;;;;;;;;20.00;35.50;;;;;;491438;240;1102;-73
2021/05/26 01:15:04;;;;;;;;;;;20.00;35.50;;;;;;491452;240;1137;-74
2021/05/26 01:17:05;;;;;;;;;;;20.00;35.50;;;;;;491302;240;2176;-74
2021/05/26 01:19:07;;;;;;;;;;;20.00;35.50;;;;;;491472;240;1153;-74
2021/05/26 01:21:08;;;;;;;;;;;20.00;35.60;;;;;;491499;240;1160;-74
2021/05/26 01:23:09;;;;;;;;;;;19.90;35.60;;;;;;491607;240;1103;-74
2021/05/26 01:25:10;;;;;;;;;;;19.90;35.60;;;;;;491560;240;960;-74
2021/05/26 01:27:12;;;;;;;;;;;19.90;35.70;;;;;;491457;240;1095;-74
2021/05/26 01:29:13;;;;;;;;;;;19.90;35.70;;;;;;491546;240;1187;-74
2021/05/26 01:31:14;;;;;;;;;;;19.90;35.70;;;;;;491467;240;1210;-74
2021/05/26 01:33:16;;;;;;;;;;;20.00;35.70;;;;;;491578;240;1173;-74
2021/05/26 01:35:17;;;;;;;;;;;20.00;35.70;;;;;;491481;240;1156;-74
2021/05/26 01:37:18;;;;;;;;;;;20.00;35.80;;;;;;491441;240;2171;-74
2021/05/26 01:39:19;;;;;;;;;;;20.00;35.80;;;;;;491440;240;1191;-74
2021/05/26 01:41:21;;;;;;;;;;;20.00;35.90;;;;;;491489;240;1094;-74
2021/05/26 01:43:22;;;;;;;;;;;19.90;35.90;;;;;;491542;240;1105;-74
2021/05/26 01:45:23;;;;;;;;;;;19.90;35.90;;;;;;491441;240;1119;-73
2021/05/26 01:47:25;;;;;;;;;;;20.00;35.90;;;;;;491463;240;1105;-73
2021/05/26 01:49:26;;;;;;;;;;;20.00;35.90;;;;;;491591;240;1135;-74
2021/05/26 01:51:27;;;;;;;;;;;20.00;35.90;;;;;;491418;240;1047;-74
2021/05/26 01:53:29;;;;;;;;;;;20.00;35.90;;;;;;491565;240;1077;-73
2021/05/26 01:55:30;;;;;;;;;;;19.90;35.90;;;;;;491485;240;1069;-73
2021/05/26 01:57:31;;;;;;;;;;;19.90;35.90;;;;;;491519;240;2183;-73
2021/05/26 01:59:33;;;;;;;;;;;20.00;36.00;;;;;;491602;240;1067;-73
2021/05/26 02:01:34;;;;;;;;;;;19.90;35.90;;;;;;491475;240;1131;-74
2021/05/26 02:03:35;;;;;;;;;;;19.90;36.00;;;;;;491465;240;1097;-74
2021/05/26 02:05:37;;;;;;;;;;;19.90;36.10;;;;;;491477;240;1180;-74
2021/05/26 02:07:38;;;;;;;;;;;19.90;36.10;;;;;;491406;240;1182;-74
2021/05/26 02:09:39;;;;;;;;;;;19.90;36.10;;;;;;491443;240;1005;-74
2021/05/26 02:14:00;;;;;;;;;;;19.90;36.10;;;;;;491600;240;949;-74
2021/05/26 02:16:01;;;;;;;;;;;19.90;36.00;;;;;;491485;240;1326;-74
2021/05/26 02:18:02;;;;;;;;;;;19.90;36.10;;;;;;491636;240;2171;-74
2021/05/26 02:20:04;;;;;;;;;;;19.90;36.10;;;;;;491513;240;1131;-74
2021/05/26 02:22:05;;;;;;;;;;;19.90;36.10;;;;;;491557;240;1100;-73
2021/05/26 02:24:06;;;;;;;;;;;19.90;36.10;;;;;;491504;240;992;-74
2021/05/26 02:26:07;;;;;;;;;;;19.90;36.10;;;;;;491487;240;1110;-73
2021/05/26 02:28:09;;;;;;;;;;;19.90;36.10;;;;;;491477;240;993;-74
2021/05/26 02:30:10;;;;;;;;;;;19.90;36.10;;;;;;491425;240;998;-74
2021/05/26 02:32:11;;;;;;;;;;;19.90;36.00;;;;;;491395;240;1086;-73
2021/05/26 02:34:13;;;;;;;;;;;19.90;36.10;;;;;;491480;240;967;-73
2021/05/26 02:36:14;;;;;;;;;;;19.90;36.10;;;;;;491462;240;1233;-73
2021/05/26 02:38:15;;;;;;;;;;;19.90;36.20;;;;;;491478;240;2148;-73
2021/05/26 02:40:16;;;;;;;;;;;19.90;36.20;;;;;;491596;240;1011;-74
2021/05/26 02:42:18;;;;;;;;;;;19.90;36.20;;;;;;491511;240;1064;-74
2021/05/26 02:44:20;;;;;;;;;;;19.90;36.20;;;;;;491554;240;957;-74
2021/05/26 02:46:20;;;;;;;;;;;19.90;36.20;;;;;;491409;240;1404;-74
2021/05/26 02:48:22;;;;;;;;;;;19.90;36.20;;;;;;491555;240;956;-74
2021/05/26 02:50:23;;;;;;;;;;;20.00;36.20;;;;;;491493;240;1242;-74
2021/05/26 02:52:24;;;;;;;;;;;20.00;36.30;;;;;;491451;240;1104;-73
2021/05/26 02:54:25;;;;;;;;;;;19.90;36.30;;;;;;491541;240;973;-74
2021/05/26 02:56:27;;;;;;;;;;;20.00;36.30;;;;;;491355;240;1167;-73
2021/05/26 02:58:28;;;;;;;;;;;20.00;36.30;;;;;;491445;240;2183;-74
2021/05/26 03:00:29;;;;;;;;;;;19.90;36.20;;;;;;491375;240;1070;-74
2021/05/26 03:02:31;;;;;;;;;;;19.90;36.20;;;;;;491380;240;999;-74
2021/05/26 03:04:32;;;;;;;;;;;19.90;36.20;;;;;;491461;240;1281;-74
2021/05/26 03:06:33;;;;;;;;;;;19.90;36.20;;;;;;491473;240;1658;-74
2021/05/26 03:08:34;;;;;;;;;;;19.90;36.20;;;;;;491528;240;1045;-73
2021/05/26 03:10:36;;;;;;;;;;;19.90;36.30;;;;;;491434;240;1233;-73
2021/05/26 03:12:37;;;;;;;;;;;19.90;36.20;;;;;;491528;240;1019;-73
2021/05/26 03:14:38;;;;;;;;;;;19.90;36.30;;;;;;491575;240;1004;-73
2021/05/26 03:16:41;;;;;;;;;;;19.90;36.30;;;;;;491495;240;1107;-73
2021/05/26 03:18:41;;;;;;;;;;;19.90;36.30;;;;;;491546;240;2189;-74
2021/05/26 03:20:42;;;;;;;;;;;19.90;36.20;;;;;;491399;240;1296;-74
2021/05/26 03:22:43;;;;;;;;;;;19.90;36.20;;;;;;491514;240;1102;-74
2021/05/26 03:24:45;;;;;;;;;;;19.90;36.20;;;;;;491486;240;982;-74
2021/05/26 03:26:46;;;;;;;;;;;19.90;36.10;;;;;;491369;240;1201;-74
2021/05/26 03:28:47;;;;;;;;;;;19.90;36.10;;;;;;491459;240;1061;-74
2021/05/26 03:30:49;;;;;;;;;;;20.00;36.20;;;;;;491413;240;999;-74
2021/05/26 03:32:50;;;;;;;;;;;19.90;36.30;;;;;;491469;240;1257;-74
2021/05/26 03:34:51;;;;;;;;;;;19.80;36.30;;;;;;491508;240;1163;-73
2021/05/26 03:36:53;;;;;;;;;;;19.90;36.30;;;;;;491450;240;1186;-73
2021/05/26 03:38:54;;;;;;;;;;;19.90;36.20;;;;;;491579;240;2110;-74
2021/05/26 03:40:55;;;;;;;;;;;19.90;36.20;;;;;;491485;240;977;-74
2021/05/26 03:42:56;;;;;;;;;;;19.90;36.20;;;;;;491548;240;1065;-74
2021/05/26 03:44:58;;;;;;;;;;;19.90;36.10;;;;;;491531;240;1051;-74
2021/05/26 03:46:59;;;;;;;;;;;19.90;36.20;;;;;;491374;240;1092;-73
2021/05/26 03:49:00;;;;;;;;;;;19.90;36.10;;;;;;491482;240;955;-73
2021/05/26 03:51:01;;;;;;;;;;;19.90;36.20;;;;;;491314;240;1118;-73
2021/05/26 03:53:04;;;;;;;;;;;19.90;36.20;;;;;;491450;240;1013;-74
2021/05/26 03:55:04;;;;;;;;;;;19.90;36.10;;;;;;491508;240;1368;-74
2021/05/26 03:57:06;;;;;;;;;;;19.90;36.10;;;;;;491324;240;2180;-74
2021/05/26 03:59:08;;;;;;;;;;;19.90;36.10;;;;;;491514;240;1119;-74
2021/05/26 04:01:08;;;;;;;;;;;19.90;36.00;;;;;;491483;240;1415;-74
2021/05/26 04:03:10;;;;;;;;;;;19.90;36.00;;;;;;491509;240;1104;-74
2021/05/26 04:05:11;;;;;;;;;;;19.90;36.00;;;;;;491485;240;977;-74
2021/05/26 04:07:12;;;;;;;;;;;19.90;36.10;;;;;;491426;240;1289;-74
2021/05/26 04:09:13;;;;;;;;;;;19.90;36.10;;;;;;491482;240;1035;-74
2021/05/26 04:11:15;;;;;;;;;;;19.90;36.10;;;;;;491400;240;987;-73
2021/05/26 04:13:16;;;;;;;;;;;19.90;36.10;;;;;;491438;240;980;-73
2021/05/26 04:15:18;;;;;;;;;;;19.90;36.10;;;;;;491417;240;1262;-73
2021/05/26 04:17:19;;;;;;;;;;;19.90;36.10;;;;;;491332;240;2128;-73
2021/05/26 04:19:20;;;;;;;;;;;19.90;36.20;;;;;;491243;240;1178;-73
2021/05/26 04:21:22;;;;;;;;;;;19.90;36.20;;;;;;491148;240;1178;-73
2021/05/26 04:23:23;;;;;;;;;;;19.90;36.20;;;;;;491259;240;1403;-73
2021/05/26 04:25:24;;;;;;;;;;;19.90;36.20;;;;;;491252;240;1049;-73
2021/05/26 04:27:25;;;;;;;;;;;19.90;36.30;;;;;;491311;240;1004;-73
2021/05/26 04:29:27;;;;;;;;;;;19.90;36.30;;;;;;491413;240;1004;-73
2021/05/26 04:31:28;;;;;;;;;;;19.90;36.20;;;;;;491390;240;1020;-73
2021/05/26 04:33:29;;;;;;;;;;;19.90;36.20;;;;;;491327;240;992;-74
2021/05/26 04:35:30;;;;;;;;;;;20.00;36.20;;;;;;491208;240;1046;-74
2021/05/26 04:37:32;;;;;;;;;;;20.00;36.20;;;;;;491171;240;2169;-74
2021/05/26 04:39:33;;;;;;;;;;;19.90;36.20;;;;;;491231;240;973;-74
2021/05/26 04:41:34;;;;;;;;;;;19.90;36.20;;;;;;491171;240;1047;-74
2021/05/26 04:43:36;;;;;;;;;;;19.90;36.20;;;;;;491240;240;997;-74
2021/05/26 04:45:37;;;;;;;;;;;19.90;36.30;;;;;;491221;240;1049;-74
2021/05/26 04:47:38;;;;;;;;;;;19.90;36.20;;;;;;491142;240;1028;-74
2021/05/26 04:49:39;;;;;;;;;;;19.90;36.20;;;;;;491215;240;1022;-73
2021/05/26 04:51:41;;;;;;;;;;;19.90;36.20;;;;;;491082;240;1206;-74
2021/05/26 04:53:42;;;;;;;;;;;19.90;36.20;;;;;;491267;240;968;-74
2021/05/26 04:55:43;;;;;;;;;;;20.00;36.20;;;;;;491259;240;1223;-73
2021/05/26 04:57:46;;;;;;;;;;;20.00;36.20;;;;;;491268;240;2180;-73
2021/05/26 04:59:46;;;;;;;;;;;20.00;36.30;;;;;;491173;240;1508;-74
2021/05/26 05:01:47;;;;;;;;;;;19.90;36.30;;;;;;491126;240;1203;-74
2021/05/26 05:03:49;;;;;;;;;;;19.90;36.30;;;;;;491170;240;1321;-74
2021/05/26 05:05:50;;;;;;;;;;;20.00;36.30;;;;;;491321;240;1238;-74
2021/05/26 05:07:51;;;;;;;;;;;20.00;36.40;;;;;;491214;240;1167;-74
2021/05/26 05:09:53;;;;;;;;;;;19.90;36.30;;;;;;491220;240;1071;-74
2021/05/26 05:11:54;;;;;;;;;;;20.00;36.30;;;;;;491184;240;1117;-74
2021/05/26 05:13:55;;;;;;;;;;;20.00;36.30;;;;;;491134;240;1040;-74
2021/05/26 05:15:57;;;;;;;;;;;19.90;36.30;;;;;;491133;240;1224;-74
2021/05/26 05:17:58;;;;;;;;;;;20.00;36.40;;;;;;491207;240;2141;-74
2021/05/26 05:19:59;;;;;;;;;;;20.00;36.40;;;;;;491109;240;1100;-74
2021/05/26 05:22:01;;;;;;;;;;;19.90;36.40;;;;;;491062;240;1133;-74
2021/05/26 05:24:02;;;;;;;;;;;19.90;36.50;;;;;;491270;240;1122;-74
2021/05/26 05:26:03;;;;;;;;;;;19.90;36.50;;;;;;491175;240;1176;-74
2021/05/26 05:28:05;;;;;;;;;;;19.90;36.60;;;;;;491108;240;1116;-74
2021/05/26 05:30:06;;;;;;;;;;;19.90;36.60;;;;;;491314;240;1231;-74
2021/05/26 05:32:07;;;;;;;;;;;19.90;36.70;;;;;;491190;240;1263;-74
2021/05/26 05:34:08;;;;;;;;;;;19.90;36.70;;;;;;491174;240;1050;-74
2021/05/26 05:36:10;;;;;;;;;;;19.90;36.70;;;;;;491106;240;1186;-74
2021/05/26 05:38:11;;;;;;;;;;;20.00;36.70;;;;;;491189;240;2176;-74
2021/05/26 05:40:13;;;;;;;;;;;20.00;36.80;;;;;;490964;240;1115;-74
2021/05/26 05:42:14;;;;;;;;;;;19.90;36.80;;;;;;491022;240;1232;-74
2021/05/26 05:44:15;;;;;;;;;;;19.90;36.80;;;;;;491051;240;1084;-73
2021/05/26 05:46:17;;;;;;;;;;;19.90;36.80;;;;;;491036;240;1091;-73
2021/05/26 05:48:18;;;;;;;;;;;19.90;36.90;;;;;;491119;240;1089;-73
2021/05/26 05:50:19;;;;;;;;;;;19.90;37.00;;;;;;491133;240;1013;-73
2021/05/26 05:52:21;;;;;;;;;;;19.90;37.00;;;;;;491000;240;1144;-73
2021/05/26 05:54:22;;;;;;;;;;;19.90;37.00;;;;;;491100;240;1010;-73
2021/05/26 05:56:23;;;;;;;;;;;19.90;37.00;;;;;;490999;240;1065;-73
2021/05/26 05:58:24;;;;;;;;;;;19.90;37.00;;;;;;491036;240;2167;-73
2021/05/26 06:00:26;;;;;;;;;;;19.90;37.00;;;;;;491009;240;1031;-74
2021/05/26 06:02:27;;;;;;;;;;;19.90;37.10;;;;;;490999;240;1145;-74
2021/05/26 06:04:28;;;;;;;;;;;20.00;37.10;;;;;;490887;240;1025;-74
2021/05/26 06:06:29;;;;;;;;;;;19.90;37.20;;;;;;490846;240;1170;-74
2021/05/26 06:08:31;;;;;;;;;;;19.90;37.20;;;;;;490842;240;1185;-74
2021/05/26 06:10:32;;;;;;;;;;;19.90;37.20;;;;;;490860;240;988;-74
2021/05/26 06:12:33;;;;;;;;;;;19.90;37.20;;;;;;490988;240;1341;-74
2021/05/26 06:14:35;;;;;;;;;;;20.00;37.30;;;;;;490997;240;1033;-74
2021/05/26 06:16:36;;;;;;;;;;;20.00;37.10;;;;;;490997;240;1047;-74
2021/05/26 06:18:37;;;;;;;;;;;20.00;37.20;;;;;;491007;240;2200;-74
2021/05/26 06:20:38;;;;;;;;;;;20.00;37.30;;;;;;490953;240;1035;-74
2021/05/26 06:22:40;;;;;;;;;;;19.90;37.20;;;;;;490970;240;1380;-74
2021/05/26 06:24:41;;;;;;;;;;;19.90;37.30;;;;;;490919;240;977;-74
2021/05/26 06:26:43;;;;;;;;;;;19.90;37.40;;;;;;490905;240;1120;-74
2021/05/26 06:28:44;;;;;;;;;;;19.90;37.40;;;;;;490861;240;1044;-73
2021/05/26 06:30:46;;;;;;;;;;;19.90;37.40;;;;;;490686;240;1150;-73
2021/05/26 06:32:47;;;;;;;;;;;20.00;37.30;;;;;;490658;240;1412;-73
2021/05/26 06:34:50;;;;;;;;;;;19.90;37.30;;;;;;490625;240;1069;-74
2021/05/26 06:36:50;;;;;;;;;;;20.00;37.30;;;;;;490761;240;1399;-74
2021/05/26 06:38:51;;;;;;;;;;;19.90;37.30;;;;;;490783;240;2192;-74
2021/05/26 06:40:52;;;;;;;;;;;20.00;37.40;;;;;;490962;240;965;-74
2021/05/26 06:42:54;;;;;;;;;;;19.90;37.30;;;;;;490906;240;1084;-74
2021/05/26 06:44:56;;;;;;;;;;;20.00;37.40;;;;;;490694;240;958;-73
2021/05/26 06:46:56;;;;;;;;;;;19.90;37.40;;;;;;490787;240;1293;-74
2021/05/26 06:48:58;;;;;;;;;;;19.90;37.40;;;;;;490896;240;1035;-74
2021/05/26 06:50:59;;;;;;;;;;;19.90;37.50;;;;;;490741;240;1169;-74
2021/05/26 06:53:01;;;;;;;;;;;19.90;37.40;;;;;;490784;240;1277;-74
2021/05/26 06:55:02;;;;;;;;;;;20.00;37.40;;;;;;490599;240;1076;-74
2021/05/26 06:57:03;;;;;;;;;;;20.00;37.40;;;;;;490683;240;1074;-74
2021/05/26 06:59:04;;;;;;;;;;;20.00;37.30;;;;;;490627;240;2144;-74
2021/05/26 07:01:06;;;;;;;;;;;20.00;37.30;;;;;;490604;240;1229;-73
2021/05/26 07:03:07;;;;;;;;;;;20.00;37.30;;;;;;490625;240;1037;-73
2021/05/26 07:05:08;;;;;;;;;;;20.00;37.20;;;;;;490739;240;1030;-73
2021/05/26 07:07:09;;;;;;;;;;;20.00;37.20;;;;;;490710;240;1043;-73
2021/05/26 07:09:11;;;;;;;;;;;20.00;37.10;;;;;;490768;240;1213;-74
2021/05/26 07:11:12;;;;;;;;;;;19.90;37.10;;;;;;490732;240;1223;-74
2021/05/26 07:13:14;;;;;;;;;;;19.90;37.10;;;;;;490824;240;1035;-74
2021/05/26 07:15:15;;;;;;;;;;;20.00;37.00;;;;;;490764;240;1025;-74
2021/05/26 07:17:16;;;;;;;;;;;19.90;37.00;;;;;;490735;240;1070;-74
2021/05/26 07:19:17;;;;;;;;;;;20.00;37.00;;;;;;490780;240;2128;-74
2021/05/26 07:21:19;;;;;;;;;;;20.00;36.90;;;;;;490696;240;1162;-73
2021/05/26 07:23:20;;;;;;;;;;;20.00;36.90;;;;;;490682;240;1318;-74
2021/05/26 07:25:21;;;;;;;;;;;20.00;37.00;;;;;;490526;240;1140;-74
2021/05/26 07:27:22;;;;;;;;;;;20.00;37.00;;;;;;490605;240;1137;-73
2021/05/26 07:29:24;;;;;;;;;;;20.10;37.00;;;;;;490549;240;1020;-74
2021/05/26 07:31:25;;;;;;;;;;;20.20;36.80;;;;;;490447;240;1502;-74
2021/05/26 07:33:26;;;;;;;;;;;20.30;36.60;;;;;;490538;240;1012;-74
2021/05/26 07:35:28;;;;;;;;;;;20.50;36.40;;;;;;490581;240;1006;-75
2021/05/26 07:37:29;;;;;;;;;;;20.50;36.20;;;;;;490446;240;1233;-74
2021/05/26 07:39:34;;;;;;;;;;;20.50;36.20;;;;;;490421;240;2156;-74
2021/05/26 07:41:32;;;;;;;;;;;20.60;36.10;;;;;;490483;240;1386;-74
2021/05/26 07:43:33;;;;;;;;;;;20.70;36.00;;;;;;490551;240;1114;-74
2021/05/26 07:45:35;;;;;;;;;;;20.70;36.00;;;;;;490476;240;1085;-74
2021/05/26 07:47:36;;;;;;;;;;;20.70;35.90;;;;;;490452;240;1074;-74
2021/05/26 07:49:37;;;;;;;;;;;20.60;35.90;;;;;;490384;240;1041;-74
2021/05/26 07:51:45;;;;;;;;;;;20.70;35.80;;;;;;490228;240;1049;-74
2021/05/26 07:53:40;;;;;;;;;;;20.60;35.80;;;;;;489636;240;2168;-74
2021/05/26 07:55:41;;;;;;;;;;;20.60;35.90;;;;;;490352;240;1071;-74
2021/05/26 07:57:42;;;;;;;;;;;20.60;36.00;;;;;;490405;240;1363;-74
2021/05/26 07:59:45;;;;;;;;;;;20.60;36.00;;;;;;490702;240;2188;-74
2021/05/26 08:01:46;;;;;;;;;;;20.70;36.00;;;;;;490599;240;1035;-74
2021/05/26 08:03:47;;;;;;;;;;;20.70;35.90;;;;;;490725;240;973;-74
2021/05/26 08:05:48;;;;;;;;;;;20.80;35.80;;;;;;490688;240;1179;-74
2021/05/26 08:07:50;;;;;;;;;;;20.70;35.60;;;;;;490844;240;1047;-74
2021/05/26 08:09:51;;;;;;;;;;;20.80;35.70;;;;;;490509;240;1320;-74
2021/05/26 08:11:52;;;;;;;;;;;20.70;35.60;;;;;;490548;240;1168;-74
2021/05/26 08:13:55;;;;;;;;;;;20.80;35.50;;;;;;490660;240;1041;-74
2021/05/26 08:15:55;;;;;;;;;;;20.80;35.50;;;;;;490439;240;1426;-74
2021/05/26 08:17:56;;;;;;;;;;;20.90;35.50;;;;;;490621;240;1058;-74
2021/05/26 08:20:00;;;;;;;;;;;20.90;35.40;;;;;;490643;240;2142;-74
2021/05/26 08:21:59;;;;;;;;;;;20.90;35.40;;;;;;490769;240;1511;-74
2021/05/26 08:24:00;;;;;;;;;;;20.80;35.40;;;;;;490638;240;1042;-74
2021/05/26 08:26:01;;;;;;;;;;;20.70;35.50;;;;;;490530;240;1132;-74
2021/05/26 08:28:03;;;;;;;;;;;20.70;35.70;;;;;;490643;240;1117;-74
2021/05/26 08:30:05;;;;;;;;;;;20.70;35.70;;;;;;490658;240;1103;-74
2021/05/26 08:32:05;;;;;;;;;;;20.70;35.70;;;;;;490669;240;1436;-73
2021/05/26 08:34:06;;;;;;;;;;;20.70;35.70;;;;;;490761;240;1024;-74
2021/05/26 08:36:08;;;;;;;;;;;20.70;35.70;;;;;;490763;240;1075;-74
2021/05/26 08:38:09;;;;;;;;;;;20.70;35.70;;;;;;490721;240;1048;-74
2021/05/26 08:40:10;;;;;;;;;;;20.70;35.60;;;;;;490596;240;2203;-74
2021/05/26 08:42:12;;;;;;;;;;;20.70;35.50;;;;;;489714;240;1343;-74
2021/05/26 08:44:13;;;;;;;;;;;20.70;35.40;;;;;;490744;240;1068;-74
2021/05/26 08:46:14;;;;;;;;;;;20.80;35.50;;;;;;490644;240;1069;-74
2021/05/26 08:48:16;;;;;;;;;;;20.80;35.30;;;;;;490696;240;975;-74
2021/05/26 08:50:17;;;;;;;;;;;20.70;35.30;;;;;;490656;240;1028;-74
2021/05/26 08:52:18;;;;;;;;;;;20.70;35.30;;;;;;490497;240;1125;-74
2021/05/26 08:54:19;;;;;;;;;;;20.70;35.40;;;;;;490500;240;1051;-74
2021/05/26 08:56:20;;;;;;;;;;;20.70;35.40;;;;;;490441;240;1217;-73
2021/05/26 08:58:22;;;;;;;;;;;20.70;35.40;;;;;;490465;240;1019;-74
2021/05/26 09:00:23;;;;;;;;;;;20.50;35.40;;;;;;490457;240;2124;-74
2021/05/26 09:02:24;;;;;;;;;;;20.60;35.50;;;;;;490382;240;1082;-74
2021/05/26 09:04:26;;;;;;;;;;;20.60;35.50;;;;;;490384;240;1075;-74
2021/05/26 09:06:42;;;;;;;;;;;20.50;35.50;;;;;;490098;240;1062;-74
2021/05/26 09:08:28;;;;;;;;;;;20.50;35.50;;;;;;490124;240;1307;-74
2021/05/26 09:10:31;;;;;;;;;;;20.50;35.50;;;;;;490529;240;1149;-74
2021/05/26 09:12:31;;;;;;;;;;;20.50;35.60;;;;;;490627;240;1416;-73
2021/05/26 09:14:32;;;;;;;;;;;20.40;35.70;;;;;;490558;240;1157;-74
2021/05/26 09:16:33;;;;;;;;;;;20.40;35.60;;;;;;490591;240;1076;-74
2021/05/26 09:18:34;;;;;;;;;;;20.40;35.60;;;;;;490750;240;1195;-74
2021/05/26 09:20:36;;;;;;;;;;;20.40;35.60;;;;;;490697;240;2192;-74
2021/05/26 09:22:40;;;;;;;;;;;20.50;35.70;;;;;;490827;240;1108;-74
2021/05/26 09:24:39;;;;;;;;;;;20.50;35.70;;;;;;490732;240;1377;-74
2021/05/26 09:26:40;;;;;;;;;;;20.50;35.70;;;;;;490708;242;1196;-74
2021/05/26 09:28:41;;;;;;;;;;;20.50;35.80;;;;;;490666;240;1075;-74
2021/05/26 09:30:43;;;;;;;;;;;20.50;35.90;;;;;;490441;240;999;-74
2021/05/26 09:32:44;;;;;;;;;;;20.50;36.00;;;;;;490451;240;1094;-74
2021/05/26 09:34:46;;;;;;;;;;;20.40;35.90;;;;;;490626;240;1197;-74
2021/05/26 09:36:47;;;;;;;;;;;20.40;36.10;;;;;;490691;240;1195;-74
2021/05/26 09:38:48;;;;;;;;;;;20.40;36.10;;;;;;490702;240;1133;-74
2021/05/26 09:40:51;;;;;;;;;;;20.40;36.20;;;;;;490535;240;2244;-74
2021/05/26 09:42:51;;;;;;;;;;;20.30;36.10;;;;;;490585;240;1238;-74
2021/05/26 09:44:52;;;;;;;;;;;20.30;36.10;;;;;;490592;240;1377;-74
2021/05/26 09:46:53;;;;;;;;;;;20.30;36.10;;;;;;490555;240;1179;-74
2021/05/26 09:48:54;;;;;;;;;;;20.30;36.10;;;;;;490711;240;1070;-74
2021/05/26 09:50:56;;;;;;;;;;;20.40;36.20;;;;;;490634;240;1519;-74
2021/05/26 09:52:57;;;;;;;;;;;20.30;36.20;;;;;;490726;240;1103;-74
2021/05/26 09:54:58;;;;;;;;;;;20.30;36.30;;;;;;490673;240;1022;-74
2021/05/26 09:57:00;;;;;;;;;;;20.30;36.30;;;;;;490621;240;1296;-74
2021/05/26 09:59:01;;;;;;;;;;;20.30;36.40;;;;;;490699;240;1066;-74
2021/05/26 10:01:02;;;;;;;;;;;20.40;36.40;;;;;;490641;240;2124;-74
2021/05/26 10:03:04;;;;;;;;;;;20.30;36.40;;;;;;490683;240;1034;-73
2021/05/26 10:05:05;;;;;;;;;;;20.30;36.50;;;;;;490657;240;1082;-74
2021/05/26 10:07:06;;;;;;;;;;;20.30;36.50;;;;;;490670;240;1302;-74
2021/05/26 10:09:07;;;;;;;;;;;20.40;36.50;;;;;;490558;240;1108;-74
2021/05/26 10:11:09;;;;;;;;;;;20.40;36.50;;;;;;489669;240;1105;-74
2021/05/26 10:13:10;;;;;;;;;;;20.40;36.50;;;;;;490545;240;1486;-74
2021/05/26 10:15:11;;;;;;;;;;;20.40;36.60;;;;;;490670;240;1156;-74
2021/05/26 10:17:19;;;;;;;;;;;20.40;36.70;;;;;;490646;240;1120;-74
2021/05/26 10:19:15;;;;;;;;;;;20.40;36.60;;;;;;490551;240;2191;-74
2021/05/26 10:21:16;;;;;;;;;;;20.60;36.30;;;;;;490410;240;1059;-74
2021/05/26 10:23:17;;;;;;;;;;;20.70;36.20;;;;;;490486;240;1150;-74
2021/05/26 10:25:19;;;;;;;;;;;20.90;36.10;;;;;;490323;240;1236;-74
2021/05/26 10:27:20;;;;;;;;;;;20.90;36.00;;;;;;490386;240;1203;-74
2021/05/26 10:29:21;;;;;;;;;;;21.00;35.80;;;;;;490335;240;1094;-74
2021/05/26 10:31:22;;;;;;;;;;;21.10;35.70;;;;;;489722;240;1106;-74
2021/05/26 10:33:24;;;;;;;;;;;21.30;35.60;;;;;;490110;240;1030;-74
2021/05/26 10:35:25;;;;;;;;;;;21.40;35.30;;;;;;490084;240;1156;-74
2021/05/26 10:37:26;;;;;;;;;;;21.50;35.10;;;;;;490465;240;1126;-74
2021/05/26 10:39:28;;;;;;;;;;;21.50;35.00;;;;;;490484;240;2188;-74
2021/05/26 10:41:29;;;;;;;;;;;21.60;34.90;;;;;;490500;240;1302;-74
2021/05/26 10:43:30;;;;;;;;;;;21.60;35.00;;;;;;490566;240;1103;-74
2021/05/26 10:45:31;;;;;;;;;;;21.50;35.00;;;;;;490326;240;1092;-74
2021/05/26 10:47:33;;;;;;;;;;;21.50;35.10;;;;;;490458;240;1098;-74
2021/05/26 10:49:34;;;;;;;;;;;21.50;35.10;;;;;;490516;240;1110;-74
2021/05/26 10:51:35;;;;;;;;;;;21.50;35.10;;;;;;490502;240;1064;-74
2021/05/26 10:53:36;;;;;;;;;;;21.50;35.20;;;;;;490655;240;1060;-74
2021/05/26 10:55:38;;;;;;;;;;;21.50;35.20;;;;;;490443;240;1044;-74
2021/05/26 10:57:39;;;;;;;;;;;21.40;35.30;;;;;;490615;240;1184;-74
2021/05/26 10:59:40;;;;;;;;;;;21.40;35.50;;;;;;490474;240;2168;-74
2021/05/26 11:01:42;;;;;;;;;;;21.30;35.50;;;;;;490511;240;1169;-74
2021/05/26 11:03:43;;;;;;;;;;;21.40;35.50;;;;;;490724;240;1039;-74
2021/05/26 11:05:44;;;;;;;;;;;21.40;35.60;;;;;;490536;240;1072;-74
2021/05/26 11:07:45;;;;;;;;;;;21.40;35.50;;;;;;490964;240;1053;-74
2021/05/26 11:09:47;;;;;;;;;;;21.40;35.50;;;;;;490664;240;991;-74
2021/05/26 11:11:48;;;;;;;;;;;21.40;35.50;;;;;;490801;240;1135;-74
2021/05/26 11:13:49;;;;;;;;;;;21.30;35.60;;;;;;490662;240;1204;-74
2021/05/26 11:15:51;;;;;;;;;;;21.40;35.50;;;;;;490476;240;1209;-74
2021/05/26 11:17:52;;;;;;;;;;;21.40;35.50;;;;;;490754;240;1279;-74
2021/05/26 11:19:53;;;;;;;;;;;21.40;35.40;;;;;;490692;240;2121;-74
2021/05/26 11:21:55;;;;;;;;;;;21.40;35.40;;;;;;490817;240;1294;-74
2021/05/26 11:23:56;;;;;;;;;;;21.40;35.30;;;;;;490692;240;1054;-75
2021/05/26 11:25:57;;;;;;;;;;;21.50;35.30;;;;;;489824;240;1015;-74
2021/05/26 11:27:58;;;;;;;;;;;21.50;35.30;;;;;;490599;240;1171;-74
2021/05/26 11:30:03;;;;;;;;;;;21.50;35.30;;;;;;490563;240;1429;-74
2021/05/26 11:32:02;;;;;;;;;;;21.50;35.40;;;;;;490458;240;1328;-74
2021/05/26 11:34:07;;;;;;;;;;;21.50;35.40;;;;;;490534;240;1518;-74
2021/05/26 11:36:06;;;;;;;;;;;21.60;35.50;;;;;;490522;240;1287;-74
2021/05/26 11:38:06;;;;;;;;;;;21.70;35.40;;;;;;490519;240;1313;-74
2021/05/26 11:40:07;;;;;;;;;;;21.70;35.50;;;;;;490582;240;2191;-75
2021/05/26 11:42:09;;;;;;;;;;;21.70;35.50;;;;;;490654;240;1126;-74
2021/05/26 11:44:10;;;;;;;;;;;21.70;35.50;;;;;;490581;240;996;-74
2021/05/26 11:46:12;;;;;;;;;;;21.80;35.50;;;;;;490281;240;1105;-74
2021/05/26 11:48:13;;;;;;;;;;;21.80;35.40;;;;;;490460;240;1109;-74
2021/05/26 11:50:14;;;;;;;;;;;21.90;35.40;;;;;;490597;240;1093;-74
2021/05/26 11:52:16;;;;;;;;;;;21.90;35.40;;;;;;490428;240;1124;-74
2021/05/26 11:54:17;;;;;;;;;;;21.70;35.60;;;;;;490478;240;1055;-74
2021/05/26 11:56:18;;;;;;;;;;;21.50;36.30;;;;;;490432;240;1192;-74
2021/05/26 11:58:19;;;;;;;;;;;21.20;36.70;;;;;;490298;240;1239;-74